createdAt,value
2016-06-08T00:00:03.837Z,964.6
2016-06-08T00:00:13.759Z,964.7
2016-06-08T00:00:23.792Z,964.7
2016-06-08T00:00:33.792Z,964.6
2016-06-08T00:00:43.808Z,964.6
2016-06-08T00:00:53.808Z,964.6
2016-06-08T00:01:03.730Z,964.7
2016-06-08T00:01:13.777Z,964.6
2016-06-08T00:01:23.765Z,964.6
2016-06-08T00:01:33.640Z,964.7
2016-06-08T00:01:43.749Z,964.7
2016-06-08T00:01:53.781Z,964.6
2016-06-08T00:02:03.874Z,964.7
2016-06-08T00:02:13.796Z,964.7
2016-06-08T00:02:23.798Z,964.7
2016-06-08T00:02:33.939Z,964.7
2016-06-08T00:02:44.095Z,964.7
2016-06-08T00:02:53.892Z,964.7
2016-06-08T00:03:03.751Z,964.7
2016-06-08T00:03:13.720Z,964.7
2016-06-08T00:03:24.035Z,964.7
2016-06-08T00:03:33.957Z,964.7
2016-06-08T00:03:43.800Z,964.7
2016-06-08T00:03:53.800Z,964.7
2016-06-08T00:04:04.988Z,964.7
2016-06-08T00:04:13.925Z,964.8
2016-06-08T00:04:23.600Z,964.8
2016-06-08T00:04:33.772Z,964.7
2016-06-08T00:04:43.694Z,964.7
2016-06-08T00:04:53.678Z,964.8
2016-06-08T00:05:03.725Z,964.7
2016-06-08T00:05:13.710Z,964.8
2016-06-08T00:05:23.744Z,964.8
2016-06-08T00:05:33.681Z,964.8
2016-06-08T00:05:43.697Z,964.7
2016-06-08T00:05:53.697Z,964.9
2016-06-08T00:06:03.666Z,964.8
2016-06-08T00:06:13.681Z,964.9
2016-06-08T00:06:23.716Z,964.8
2016-06-08T00:06:33.684Z,964.8
2016-06-08T00:06:43.700Z,964.9
2016-06-08T00:06:53.700Z,964.9
2016-06-08T00:07:03.637Z,964.8
2016-06-08T00:07:13.716Z,964.9
2016-06-08T00:07:23.499Z,964.9
2016-06-08T00:07:33.655Z,964.9
2016-06-08T00:07:43.655Z,965
2016-06-08T00:07:53.655Z,965
2016-06-08T00:08:03.655Z,964.9
2016-06-08T00:08:13.483Z,964.9
2016-06-08T00:08:23.736Z,965
2016-06-08T00:08:33.642Z,965
2016-06-08T00:08:43.752Z,964.9
2016-06-08T00:08:53.642Z,964.9
2016-06-08T00:09:03.471Z,964.9
2016-06-08T00:09:13.642Z,964.9
2016-06-08T00:09:23.614Z,964.9
2016-06-08T00:09:33.599Z,964.9
2016-06-08T00:09:43.599Z,965
2016-06-08T00:09:53.599Z,964.9
2016-06-08T00:10:03.599Z,964.9
2016-06-08T00:10:13.599Z,964.8
2016-06-08T00:10:23.585Z,965
2016-06-08T00:10:33.601Z,964.9
2016-06-08T00:10:43.616Z,964.8
2016-06-08T00:10:53.616Z,964.9
2016-06-08T00:11:04.038Z,964.9
2016-06-08T00:11:13.710Z,965
2016-06-08T00:11:23.807Z,964.9
2016-06-08T00:11:33.854Z,964.9
2016-06-08T00:11:43.494Z,965
2016-06-08T00:11:54.588Z,964.9
2016-06-08T00:12:03.416Z,964.9
2016-06-08T00:12:14.510Z,965
2016-06-08T00:12:24.199Z,964.9
2016-06-08T00:12:33.606Z,965
2016-06-08T00:12:43.606Z,964.9
2016-06-08T00:12:53.481Z,965
2016-06-08T00:13:03.637Z,965
2016-06-08T00:13:13.465Z,965
2016-06-08T00:13:23.577Z,965
2016-06-08T00:13:33.624Z,964.9
2016-06-08T00:13:43.546Z,965
2016-06-08T00:13:53.655Z,964.9
2016-06-08T00:14:09.187Z,964.9
2016-06-08T00:14:20.487Z,964.8
2016-06-08T00:14:26.799Z,965
2016-06-08T00:14:36.705Z,964.9
2016-06-08T00:14:46.705Z,964.8
2016-06-08T00:14:56.752Z,964.9
2016-06-08T00:15:06.752Z,964.9
2016-06-08T00:15:16.724Z,964.9
2016-06-08T00:15:26.708Z,964.9
2016-06-08T00:15:36.724Z,964.9
2016-06-08T00:15:46.802Z,965
2016-06-08T00:15:56.693Z,964.9
2016-06-08T00:16:06.693Z,965
2016-06-08T00:16:16.743Z,965
2016-06-08T00:16:26.696Z,964.9
2016-06-08T00:16:36.680Z,964.9
2016-06-08T00:16:46.664Z,964.8
2016-06-08T00:16:56.539Z,964.9
2016-06-08T00:17:06.680Z,964.9
2016-06-08T00:17:16.682Z,964.8
2016-06-08T00:17:26.666Z,964.9
2016-06-08T00:17:36.682Z,964.8
2016-06-08T00:17:46.682Z,965
2016-06-08T00:17:56.651Z,964.9
2016-06-08T00:18:06.651Z,964.8
2016-06-08T00:18:16.685Z,964.8
2016-06-08T00:18:26.685Z,964.9
2016-06-08T00:18:36.638Z,964.9
2016-06-08T00:18:46.701Z,964.7
2016-06-08T00:18:56.685Z,964.8
2016-06-08T00:19:06.638Z,964.8
2016-06-08T00:19:16.718Z,964.8
2016-06-08T00:19:29.984Z,964.8
2016-06-08T00:19:40.593Z,964.9
2016-06-08T00:19:51.859Z,964.8
2016-06-08T00:19:58.312Z,964.7
2016-06-08T00:20:08.265Z,964.9
2016-06-08T00:20:18.128Z,964.8
2016-06-08T00:20:28.253Z,964.7
2016-06-08T00:20:38.112Z,964.8
2016-06-08T00:20:48.253Z,964.8
2016-06-08T00:20:58.268Z,964.8
2016-06-08T00:21:08.237Z,964.7
2016-06-08T00:21:18.240Z,964.8
2016-06-08T00:21:28.271Z,964.8
2016-06-08T00:21:38.224Z,964.8
2016-06-08T00:21:48.240Z,964.8
2016-06-08T00:21:58.099Z,964.7
2016-06-08T00:22:08.240Z,964.8
2016-06-08T00:22:18.259Z,964.7
2016-06-08T00:22:28.227Z,964.7
2016-06-08T00:22:38.243Z,964.8
2016-06-08T00:22:48.259Z,964.8
2016-06-08T00:22:59.884Z,964.8
2016-06-08T00:23:08.290Z,964.8
2016-06-08T00:23:18.245Z,964.8
2016-06-08T00:23:28.229Z,964.8
2016-06-08T00:23:38.229Z,964.8
2016-06-08T00:23:48.245Z,964.8
2016-06-08T00:23:58.214Z,964.7
2016-06-08T00:24:08.261Z,964.7
2016-06-08T00:24:18.231Z,964.7
2016-06-08T00:24:28.059Z,964.7
2016-06-08T00:24:38.216Z,964.7
2016-06-08T00:24:48.216Z,964.8
2016-06-08T00:24:58.184Z,964.8
2016-06-08T00:25:08.231Z,964.7
2016-06-08T00:25:18.204Z,964.7
2016-06-08T00:25:28.235Z,964.7
2016-06-08T00:25:38.204Z,964.7
2016-06-08T00:25:48.204Z,964.7
2016-06-08T00:25:58.735Z,964.7
2016-06-08T00:26:08.298Z,964.7
2016-06-08T00:26:17.769Z,964.8
2016-06-08T00:26:28.800Z,964.8
2016-06-08T00:26:38.394Z,964.8
2016-06-08T00:26:48.300Z,964.8
2016-06-08T00:26:58.831Z,964.7
2016-06-08T00:27:08.362Z,964.8
2016-06-08T00:27:18.725Z,964.8
2016-06-08T00:27:28.053Z,964.7
2016-06-08T00:27:38.209Z,964.8
2016-06-08T00:27:48.209Z,964.8
2016-06-08T00:27:58.209Z,964.7
2016-06-08T00:28:08.162Z,964.7
2016-06-08T00:28:18.164Z,964.7
2016-06-08T00:28:28.164Z,964.8
2016-06-08T00:28:38.055Z,964.8
2016-06-08T00:28:48.133Z,964.8
2016-06-08T00:28:58.164Z,964.8
2016-06-08T00:29:08.149Z,964.8
2016-06-08T00:29:18.136Z,964.8
2016-06-08T00:29:28.152Z,964.8
2016-06-08T00:29:38.011Z,964.7
2016-06-08T00:29:48.136Z,964.8
2016-06-08T00:29:58.183Z,964.8
2016-06-08T00:30:08.214Z,964.8
2016-06-08T00:30:18.186Z,964.8
2016-06-08T00:30:28.123Z,964.8
2016-06-08T00:30:38.139Z,964.7
2016-06-08T00:30:48.139Z,964.8
2016-06-08T00:30:58.170Z,964.9
2016-06-08T00:31:08.186Z,964.8
2016-06-08T00:31:18.204Z,964.9
2016-06-08T00:31:28.048Z,964.8
2016-06-08T00:31:38.142Z,964.8
2016-06-08T00:31:48.142Z,964.8
2016-06-08T00:31:58.158Z,964.8
2016-06-08T00:32:07.986Z,964.8
2016-06-08T00:32:18.114Z,964.8
2016-06-08T00:32:28.207Z,964.9
2016-06-08T00:32:38.114Z,964.9
2016-06-08T00:32:48.129Z,964.9
2016-06-08T00:32:58.129Z,964.9
2016-06-08T00:33:08.145Z,964.9
2016-06-08T00:33:18.100Z,964.9
2016-06-08T00:33:28.131Z,964.8
2016-06-08T00:33:38.116Z,964.9
2016-06-08T00:33:48.116Z,964.9
2016-06-08T00:33:58.084Z,964.9
2016-06-08T00:34:08.100Z,965
2016-06-08T00:34:17.947Z,964.9
2016-06-08T00:34:28.072Z,964.9
2016-06-08T00:34:38.072Z,964.9
2016-06-08T00:34:47.900Z,965
2016-06-08T00:34:58.181Z,964.9
2016-06-08T00:35:08.056Z,965
2016-06-08T00:35:18.089Z,965
2016-06-08T00:35:28.074Z,965
2016-06-08T00:35:38.043Z,965
2016-06-08T00:35:48.074Z,965
2016-06-08T00:35:58.058Z,965
2016-06-08T00:36:08.058Z,965
2016-06-08T00:36:17.889Z,965.1
2016-06-08T00:36:28.030Z,965
2016-06-08T00:36:37.905Z,965
2016-06-08T00:36:48.061Z,965.1
2016-06-08T00:36:58.046Z,965
2016-06-08T00:37:08.046Z,965.1
2016-06-08T00:37:18.049Z,965
2016-06-08T00:37:28.064Z,965.1
2016-06-08T00:37:38.049Z,965.1
2016-06-08T00:37:47.861Z,965.1
2016-06-08T00:37:58.017Z,965.1
2016-06-08T00:38:08.017Z,965.2
2016-06-08T00:38:18.082Z,965.1
2016-06-08T00:38:28.035Z,965.1
2016-06-08T00:38:38.035Z,965.2
2016-06-08T00:38:48.019Z,965.2
2016-06-08T00:38:58.019Z,965.2
2016-06-08T00:39:08.019Z,965.1
2016-06-08T00:39:18.023Z,965.2
2016-06-08T00:39:27.992Z,965.2
2016-06-08T00:39:38.055Z,965.1
2016-06-08T00:39:48.101Z,965.2
2016-06-08T00:39:58.039Z,965.2
2016-06-08T00:40:08.070Z,965.2
2016-06-08T00:40:18.150Z,965.2
2016-06-08T00:40:27.994Z,965.2
2016-06-08T00:40:37.978Z,965.2
2016-06-08T00:40:48.025Z,965.2
2016-06-08T00:40:59.994Z,965.3
2016-06-08T00:41:10.760Z,965.2
2016-06-08T00:41:25.263Z,965.3
2016-06-08T00:41:34.169Z,965.3
2016-06-08T00:41:42.700Z,965.3
2016-06-08T00:41:51.888Z,965.3
2016-06-08T00:42:03.247Z,965.2
2016-06-08T00:42:13.247Z,965.3
2016-06-08T00:42:23.109Z,965.4
2016-06-08T00:42:32.313Z,965.3
2016-06-08T00:42:42.219Z,965.2
2016-06-08T00:42:51.906Z,965.3
2016-06-08T00:43:02.203Z,965.4
2016-06-08T00:43:12.016Z,965.3
2016-06-08T00:43:22.002Z,965.3
2016-06-08T00:43:32.002Z,965.4
2016-06-08T00:43:41.986Z,965.3
2016-06-08T00:43:52.330Z,965.3
2016-06-08T00:44:02.924Z,965.3
2016-06-08T00:44:12.033Z,965.3
2016-06-08T00:44:22.021Z,965.4
2016-06-08T00:44:31.989Z,965.4
2016-06-08T00:44:42.005Z,965.4
2016-06-08T00:44:52.036Z,965.3
2016-06-08T00:45:02.068Z,965.4
2016-06-08T00:45:11.989Z,965.3
2016-06-08T00:45:22.023Z,965.4
2016-06-08T00:45:32.007Z,965.4
2016-06-08T00:45:41.976Z,965.3
2016-06-08T00:45:52.007Z,965.3
2016-06-08T00:46:01.976Z,965.5
2016-06-08T00:46:12.023Z,965.4
2016-06-08T00:46:21.994Z,965.4
2016-06-08T00:46:31.838Z,965.5
2016-06-08T00:46:41.994Z,965.5
2016-06-08T00:46:51.854Z,965.5
2016-06-08T00:47:01.963Z,965.5
2016-06-08T00:47:12.010Z,965.4
2016-06-08T00:47:21.982Z,965.5
2016-06-08T00:47:31.966Z,965.5
2016-06-08T00:47:41.997Z,965.4
2016-06-08T00:47:51.966Z,965.4
2016-06-08T00:48:01.951Z,965.5
2016-06-08T00:48:11.826Z,965.5
2016-06-08T00:48:21.954Z,965.5
2016-06-08T00:48:31.813Z,965.5
2016-06-08T00:48:41.954Z,965.5
2016-06-08T00:48:51.922Z,965.5
2016-06-08T00:49:01.969Z,965.6
2016-06-08T00:49:11.938Z,965.6
2016-06-08T00:49:22.221Z,965.6
2016-06-08T00:49:31.956Z,965.5
2016-06-08T00:49:41.909Z,965.5
2016-06-08T00:49:51.752Z,965.6
2016-06-08T00:50:01.799Z,965.5
2016-06-08T00:50:11.909Z,965.5
2016-06-08T00:50:21.771Z,965.5
2016-06-08T00:50:31.896Z,965.6
2016-06-08T00:50:41.912Z,965.5
2016-06-08T00:50:51.709Z,965.6
2016-06-08T00:51:01.880Z,965.5
2016-06-08T00:51:11.880Z,965.5
2016-06-08T00:51:21.882Z,965.7
2016-06-08T00:51:31.898Z,965.6
2016-06-08T00:51:41.867Z,965.6
2016-06-08T00:51:51.882Z,965.6
2016-06-08T00:52:01.882Z,965.6
2016-06-08T00:52:11.867Z,965.5
2016-06-08T00:52:21.870Z,965.6
2016-06-08T00:52:31.870Z,965.6
2016-06-08T00:52:41.745Z,965.7
2016-06-08T00:52:51.932Z,965.5
2016-06-08T00:53:01.854Z,965.6
2016-06-08T00:53:11.901Z,965.7
2016-06-08T00:53:21.857Z,965.6
2016-06-08T00:53:31.842Z,965.6
2016-06-08T00:53:41.888Z,965.7
2016-06-08T00:53:51.873Z,965.7
2016-06-08T00:54:01.842Z,965.6
2016-06-08T00:54:11.857Z,965.7
2016-06-08T00:54:21.875Z,965.6
2016-06-08T00:54:31.828Z,965.7
2016-06-08T00:54:41.844Z,965.6
2016-06-08T00:54:51.844Z,965.7
2016-06-08T00:55:01.828Z,965.7
2016-06-08T00:55:11.828Z,965.7
2016-06-08T00:55:21.832Z,965.7
2016-06-08T00:55:31.863Z,965.7
2016-06-08T00:55:41.691Z,965.8
2016-06-08T00:55:51.816Z,965.7
2016-06-08T00:56:02.519Z,965.7
2016-06-08T00:56:12.394Z,965.7
2016-06-08T00:56:22.287Z,965.7
2016-06-08T00:56:32.787Z,965.7
2016-06-08T00:56:43.287Z,965.7
2016-06-08T00:56:52.178Z,965.8
2016-06-08T00:57:01.959Z,965.8
2016-06-08T00:57:13.396Z,965.8
2016-06-08T00:57:22.571Z,965.8
2016-06-08T00:57:31.728Z,965.8
2016-06-08T00:57:41.868Z,965.8
2016-06-08T00:57:51.806Z,965.8
2016-06-08T00:58:01.806Z,965.8
2016-06-08T00:58:11.821Z,965.8
2016-06-08T00:58:21.809Z,965.8
2016-06-08T00:58:31.809Z,965.8
2016-06-08T00:58:41.809Z,965.8
2016-06-08T00:58:51.777Z,965.8
2016-06-08T00:59:01.809Z,965.8
2016-06-08T00:59:11.481Z,965.9
2016-06-08T00:59:21.764Z,965.8
2016-06-08T00:59:31.795Z,966
2016-06-08T00:59:41.764Z,965.8
2016-06-08T00:59:51.920Z,965.8
2016-06-08T01:00:01.826Z,965.9
2016-06-08T01:00:14.529Z,965.8
2016-06-08T01:00:27.157Z,965.9
2016-06-08T01:00:35.486Z,965.9
2016-06-08T01:00:43.970Z,965.9
2016-06-08T01:00:53.939Z,965.9
2016-06-08T01:01:03.954Z,965.8
2016-06-08T01:01:13.923Z,965.9
2016-06-08T01:01:23.972Z,965.9
2016-06-08T01:01:33.925Z,965.9
2016-06-08T01:01:43.909Z,965.8
2016-06-08T01:01:53.925Z,965.9
2016-06-08T01:02:03.628Z,965.9
2016-06-08T01:02:13.925Z,965.9
2016-06-08T01:02:23.787Z,965.9
2016-06-08T01:02:33.944Z,965.9
2016-06-08T01:02:43.928Z,965.9
2016-06-08T01:02:53.756Z,966
2016-06-08T01:03:03.912Z,966
2016-06-08T01:03:13.928Z,966
2016-06-08T01:03:23.915Z,965.9
2016-06-08T01:03:33.900Z,966
2016-06-08T01:03:43.962Z,966
2016-06-08T01:03:53.900Z,965.9
2016-06-08T01:04:03.931Z,966
2016-06-08T01:04:13.947Z,966
2016-06-08T01:04:23.950Z,966
2016-06-08T01:04:33.918Z,966
2016-06-08T01:04:43.887Z,966
2016-06-08T01:04:53.731Z,966.1
2016-06-08T01:05:03.903Z,966
2016-06-08T01:05:13.903Z,966
2016-06-08T01:05:23.749Z,966
2016-06-08T01:05:33.874Z,966.1
2016-06-08T01:05:43.905Z,966.1
2016-06-08T01:05:53.920Z,966
2016-06-08T01:06:03.874Z,966.1
2016-06-08T01:06:13.889Z,966.1
2016-06-08T01:06:23.877Z,966
2016-06-08T01:06:34.002Z,966
2016-06-08T01:06:43.861Z,966
2016-06-08T01:06:53.861Z,966.2
2016-06-08T01:07:03.736Z,966.1
2016-06-08T01:07:13.705Z,966.1
2016-06-08T01:07:23.879Z,966.2
2016-06-08T01:07:33.894Z,966.1
2016-06-08T01:07:43.910Z,966.2
2016-06-08T01:07:53.863Z,966.1
2016-06-08T01:08:03.847Z,966.1
2016-06-08T01:08:13.832Z,966.1
2016-06-08T01:08:23.835Z,966.2
2016-06-08T01:08:33.866Z,966.1
2016-06-08T01:08:43.850Z,966.2
2016-06-08T01:08:53.819Z,966.1
2016-06-08T01:09:03.866Z,966.2
2016-06-08T01:09:13.850Z,966.2
2016-06-08T01:09:23.947Z,966.2
2016-06-08T01:09:33.556Z,966.1
2016-06-08T01:09:43.744Z,966.1
2016-06-08T01:09:53.556Z,966.1
2016-06-08T01:10:03.400Z,966.2
2016-06-08T01:10:13.556Z,966.2
2016-06-08T01:10:23.465Z,966.2
2016-06-08T01:10:33.527Z,966.3
2016-06-08T01:10:43.574Z,966.2
2016-06-08T01:10:53.512Z,966.1
2016-06-08T01:11:05.074Z,966.2
2016-06-08T01:11:15.808Z,966.3
2016-06-08T01:11:23.922Z,966.2
2016-06-08T01:11:34.203Z,966.2
2016-06-08T01:11:44.812Z,966.2
2016-06-08T01:11:54.500Z,966.2
2016-06-08T01:12:04.797Z,966.2
2016-06-08T01:12:14.766Z,966.3
2016-06-08T01:12:24.314Z,966.2
2016-06-08T01:12:33.783Z,966.3
2016-06-08T01:12:43.768Z,966.2
2016-06-08T01:12:53.799Z,966.3
2016-06-08T01:13:03.768Z,966.3
2016-06-08T01:13:13.768Z,966.3
2016-06-08T01:13:23.786Z,966.3
2016-06-08T01:13:33.771Z,966.3
2016-06-08T01:13:43.771Z,966.2
2016-06-08T01:13:53.739Z,966.3
2016-06-08T01:14:03.755Z,966.3
2016-06-08T01:14:13.739Z,966.3
2016-06-08T01:14:23.774Z,966.3
2016-06-08T01:14:33.758Z,966.3
2016-06-08T01:14:43.805Z,966.3
2016-06-08T01:14:53.570Z,966.2
2016-06-08T01:15:03.758Z,966.4
2016-06-08T01:15:13.727Z,966.3
2016-06-08T01:15:23.776Z,966.3
2016-06-08T01:15:33.776Z,966.4
2016-06-08T01:15:43.744Z,966.4
2016-06-08T01:15:53.729Z,966.3
2016-06-08T01:16:03.729Z,966.4
2016-06-08T01:16:13.760Z,966.3
2016-06-08T01:16:23.872Z,966.3
2016-06-08T01:16:33.779Z,966.3
2016-06-08T01:16:43.591Z,966.3
2016-06-08T01:16:53.404Z,966.4
2016-06-08T01:17:03.685Z,966.4
2016-06-08T01:17:13.810Z,966.4
2016-06-08T01:17:23.781Z,966.4
2016-06-08T01:17:33.734Z,966.3
2016-06-08T01:17:43.702Z,966.4
2016-06-08T01:17:53.734Z,966.3
2016-06-08T01:18:03.718Z,966.3
2016-06-08T01:18:13.702Z,966.4
2016-06-08T01:18:23.705Z,966.4
2016-06-08T01:18:33.705Z,966.5
2016-06-08T01:18:43.690Z,966.4
2016-06-08T01:18:53.690Z,966.5
2016-06-08T01:19:03.565Z,966.5
2016-06-08T01:19:13.659Z,966.4
2016-06-08T01:19:23.677Z,966.4
2016-06-08T01:19:33.693Z,966.4
2016-06-08T01:19:43.693Z,966.5
2016-06-08T01:19:53.677Z,966.4
2016-06-08T01:20:03.662Z,966.5
2016-06-08T01:20:13.505Z,966.3
2016-06-08T01:20:23.680Z,966.5
2016-06-08T01:20:33.665Z,966.3
2016-06-08T01:20:43.665Z,966.5
2016-06-08T01:20:53.665Z,966.4
2016-06-08T01:21:03.680Z,966.5
2016-06-08T01:21:13.649Z,966.5
2016-06-08T01:21:23.713Z,966.4
2016-06-08T01:21:33.682Z,966.4
2016-06-08T01:21:43.651Z,966.4
2016-06-08T01:21:53.495Z,966.5
2016-06-08T01:22:03.698Z,966.4
2016-06-08T01:22:13.667Z,966.5
2016-06-08T01:22:23.560Z,966.5
2016-06-08T01:22:33.654Z,966.5
2016-06-08T01:22:43.623Z,966.5
2016-06-08T01:22:53.654Z,966.5
2016-06-08T01:23:03.716Z,966.5
2016-06-08T01:23:13.654Z,966.5
2016-06-08T01:23:23.329Z,966.5
2016-06-08T01:23:33.641Z,966.6
2016-06-08T01:23:43.704Z,966.6
2016-06-08T01:23:53.610Z,966.5
2016-06-08T01:24:03.610Z,966.6
2016-06-08T01:24:13.657Z,966.5
2016-06-08T01:24:23.628Z,966.5
2016-06-08T01:24:33.628Z,966.6
2016-06-08T01:24:43.581Z,966.6
2016-06-08T01:24:53.440Z,966.6
2016-06-08T01:25:03.721Z,966.5
2016-06-08T01:25:13.596Z,966.6
2016-06-08T01:25:23.599Z,966.6
2016-06-08T01:25:33.631Z,966.6
2016-06-08T01:25:43.584Z,966.7
2016-06-08T01:25:53.287Z,966.6
2016-06-08T01:26:03.474Z,966.6
2016-06-08T01:26:13.865Z,966.6
2016-06-08T01:26:24.039Z,966.6
2016-06-08T01:26:34.273Z,966.6
2016-06-08T01:26:44.351Z,966.7
2016-06-08T01:26:53.711Z,966.7
2016-06-08T01:27:04.617Z,966.7
2016-06-08T01:27:13.726Z,966.6
2016-06-08T01:27:24.668Z,966.7
2016-06-08T01:27:33.402Z,966.7
2016-06-08T01:27:43.590Z,966.8
2016-06-08T01:27:53.574Z,966.7
2016-06-08T01:28:03.605Z,966.8
2016-06-08T01:28:13.559Z,966.8
2016-06-08T01:28:23.561Z,966.7
2016-06-08T01:28:35.373Z,966.8
2016-06-08T01:28:49.045Z,966.7
2016-06-08T01:28:58.373Z,966.7
2016-06-08T01:29:05.779Z,966.8
2016-06-08T01:29:15.701Z,966.7
2016-06-08T01:29:25.720Z,966.8
2016-06-08T01:29:35.689Z,966.8
2016-06-08T01:29:45.798Z,966.8
2016-06-08T01:29:55.720Z,966.8
2016-06-08T01:30:05.814Z,966.8
2016-06-08T01:30:15.720Z,966.8
2016-06-08T01:30:25.582Z,966.8
2016-06-08T01:30:35.723Z,966.7
2016-06-08T01:30:45.692Z,966.8
2016-06-08T01:30:55.692Z,966.9
2016-06-08T01:31:05.723Z,966.8
2016-06-08T01:31:15.551Z,966.9
2016-06-08T01:31:25.740Z,966.9
2016-06-08T01:31:35.678Z,966.8
2016-06-08T01:31:45.694Z,966.8
2016-06-08T01:31:55.662Z,966.9
2016-06-08T01:32:05.709Z,966.8
2016-06-08T01:32:15.662Z,966.8
2016-06-08T01:32:25.681Z,966.9
2016-06-08T01:32:35.697Z,966.8
2016-06-08T01:32:45.587Z,966.9
2016-06-08T01:32:55.665Z,966.8
2016-06-08T01:33:05.665Z,966.9
2016-06-08T01:33:15.650Z,966.9
2016-06-08T01:33:25.652Z,966.8
2016-06-08T01:33:35.636Z,966.8
2016-06-08T01:33:45.652Z,966.9
2016-06-08T01:33:55.683Z,967
2016-06-08T01:34:05.652Z,966.9
2016-06-08T01:34:15.652Z,966.8
2016-06-08T01:34:25.623Z,966.9
2016-06-08T01:34:35.655Z,966.9
2016-06-08T01:34:45.623Z,966.9
2016-06-08T01:34:55.608Z,966.8
2016-06-08T01:35:05.639Z,966.9
2016-06-08T01:35:15.623Z,966.8
2016-06-08T01:35:25.486Z,966.9
2016-06-08T01:35:35.642Z,967
2016-06-08T01:35:45.642Z,966.9
2016-06-08T01:35:55.626Z,966.9
2016-06-08T01:36:05.626Z,966.9
2016-06-08T01:36:15.611Z,967
2016-06-08T01:36:25.629Z,967
2016-06-08T01:36:35.614Z,967
2016-06-08T01:36:45.614Z,966.9
2016-06-08T01:36:55.614Z,967
2016-06-08T01:37:05.614Z,966.9
2016-06-08T01:37:15.614Z,967
2016-06-08T01:37:25.444Z,967
2016-06-08T01:37:35.616Z,967
2016-06-08T01:37:45.616Z,967
2016-06-08T01:37:55.600Z,967
2016-06-08T01:38:05.631Z,967
2016-06-08T01:38:15.569Z,967
2016-06-08T01:38:25.572Z,967
2016-06-08T01:38:35.603Z,967
2016-06-08T01:38:45.588Z,967
2016-06-08T01:38:55.572Z,967
2016-06-08T01:39:05.603Z,967
2016-06-08T01:39:15.556Z,966.9
2016-06-08T01:39:25.558Z,967
2016-06-08T01:39:35.574Z,966.9
2016-06-08T01:39:45.402Z,967
2016-06-08T01:39:55.558Z,967
2016-06-08T01:40:05.402Z,967
2016-06-08T01:40:15.558Z,967
2016-06-08T01:40:25.546Z,967
2016-06-08T01:40:35.561Z,967
2016-06-08T01:40:45.561Z,967
2016-06-08T01:40:55.530Z,967
2016-06-08T01:41:05.546Z,967
2016-06-08T01:41:15.421Z,967
2016-06-08T01:41:25.908Z,967.1
2016-06-08T01:41:37.267Z,967
2016-06-08T01:41:45.689Z,967.1
2016-06-08T01:41:55.549Z,967.1
2016-06-08T01:42:05.861Z,967
2016-06-08T01:42:16.455Z,967
2016-06-08T01:42:26.160Z,967
2016-06-08T01:42:36.410Z,967.1
2016-06-08T01:42:45.457Z,967.1
2016-06-08T01:42:55.504Z,967.1
2016-06-08T01:43:05.598Z,967
2016-06-08T01:43:15.363Z,967
2016-06-08T01:43:25.586Z,967.1
2016-06-08T01:43:36.227Z,967.1
2016-06-08T01:43:47.695Z,967.1
2016-06-08T01:43:59.445Z,967.1
2016-06-08T01:44:11.117Z,967.1
2016-06-08T01:44:23.369Z,967
2016-06-08T01:44:35.369Z,967.1
2016-06-08T01:44:47.900Z,967.1
2016-06-08T01:44:59.900Z,967.1
2016-06-08T01:45:06.744Z,967.1
2016-06-08T01:45:16.619Z,967.1
2016-06-08T01:45:26.638Z,967.1
2016-06-08T01:45:37.841Z,967.1
2016-06-08T01:45:47.388Z,967.1
2016-06-08T01:45:56.638Z,967
2016-06-08T01:46:07.216Z,967.1
2016-06-08T01:46:17.075Z,967.1
2016-06-08T01:46:27.391Z,967
2016-06-08T01:46:36.610Z,967.1
2016-06-08T01:46:47.344Z,967.1
2016-06-08T01:46:56.453Z,967.1
2016-06-08T01:47:06.594Z,967.1
2016-06-08T01:47:16.594Z,967.1
2016-06-08T01:47:26.596Z,967.1
2016-06-08T01:47:37.346Z,967.1
2016-06-08T01:47:46.440Z,967.1
2016-06-08T01:47:56.487Z,967.1
2016-06-08T01:48:06.580Z,967.1
2016-06-08T01:48:16.580Z,967.1
2016-06-08T01:48:27.505Z,967.1
2016-06-08T01:48:36.583Z,967.1
2016-06-08T01:48:46.568Z,967.2
2016-06-08T01:48:56.583Z,967
2016-06-08T01:49:06.583Z,967.1
2016-06-08T01:49:17.755Z,967.2
2016-06-08T01:49:26.554Z,967.1
2016-06-08T01:49:36.554Z,967.1
2016-06-08T01:49:46.554Z,967
2016-06-08T01:49:56.538Z,967.2
2016-06-08T01:50:07.367Z,967
2016-06-08T01:50:16.554Z,967.1
2016-06-08T01:50:26.541Z,967.2
2016-06-08T01:50:36.541Z,967.1
2016-06-08T01:50:46.416Z,967.2
2016-06-08T01:50:56.526Z,967
2016-06-08T01:51:06.541Z,967.1
2016-06-08T01:51:16.526Z,967.1
2016-06-08T01:51:26.388Z,967.1
2016-06-08T01:51:36.544Z,967.2
2016-06-08T01:51:46.373Z,967.1
2016-06-08T01:51:56.560Z,967.1
2016-06-08T01:52:06.373Z,967.1
2016-06-08T01:52:16.529Z,967.2
2016-06-08T01:52:26.532Z,967.2
2016-06-08T01:52:36.688Z,967.1
2016-06-08T01:52:46.516Z,967.1
2016-06-08T01:52:56.516Z,967.2
2016-06-08T01:53:08.344Z,967.1
2016-06-08T01:53:17.032Z,967.2
2016-06-08T01:53:26.518Z,967.2
2016-06-08T01:53:37.174Z,967.2
2016-06-08T01:53:46.565Z,967.1
2016-06-08T01:54:01.299Z,967.2
2016-06-08T01:54:09.612Z,967.1
2016-06-08T01:54:20.506Z,967.2
2016-06-08T01:54:30.068Z,967.2
2016-06-08T01:54:40.506Z,967.1
2016-06-08T01:54:49.818Z,967
2016-06-08T01:55:01.256Z,967.2
2016-06-08T01:55:10.865Z,967.2
2016-06-08T01:55:18.162Z,967.1
2016-06-08T01:55:28.445Z,967.2
2016-06-08T01:55:38.148Z,967.1
2016-06-08T01:55:48.883Z,967.2
2016-06-08T01:55:58.258Z,967.2
2016-06-08T01:56:08.773Z,967.2
2016-06-08T01:56:18.039Z,967.1
2016-06-08T01:56:29.823Z,967.2
2016-06-08T01:56:38.776Z,967.2
2016-06-08T01:56:48.964Z,967.2
2016-06-08T01:56:57.995Z,967.2
2016-06-08T01:57:09.604Z,967.2
2016-06-08T01:57:18.482Z,967.2
2016-06-08T01:57:28.170Z,967.1
2016-06-08T01:57:40.326Z,967.2
2016-06-08T01:57:48.529Z,967.2
2016-06-08T01:57:58.373Z,967.2
2016-06-08T01:58:08.170Z,967.2
2016-06-08T01:58:18.154Z,967.3
2016-06-08T01:58:28.188Z,967.3
2016-06-08T01:58:38.251Z,967.3
2016-06-08T01:58:48.532Z,967.3
2016-06-08T01:58:58.220Z,967.3
2016-06-08T01:59:08.188Z,967.2
2016-06-08T01:59:18.157Z,967.3
2016-06-08T01:59:28.879Z,967.3
2016-06-08T01:59:38.285Z,967.3
2016-06-08T01:59:48.098Z,967.4
2016-06-08T01:59:58.191Z,967.3
2016-06-08T02:00:08.473Z,967.3
2016-06-08T02:00:18.207Z,967.4
2016-06-08T02:00:28.240Z,967.3
2016-06-08T02:00:38.084Z,967.3
2016-06-08T02:00:48.490Z,967.4
2016-06-08T02:00:58.178Z,967.3
2016-06-08T02:01:08.381Z,967.4
2016-06-08T02:01:18.365Z,967.3
2016-06-08T02:01:28.478Z,967.4
2016-06-08T02:01:38.134Z,967.5
2016-06-08T02:01:48.712Z,967.5
2016-06-08T02:01:58.384Z,967.4
2016-06-08T02:02:08.087Z,967.4
2016-06-08T02:02:18.793Z,967.5
2016-06-08T02:02:28.059Z,967.4
2016-06-08T02:02:38.856Z,967.4
2016-06-08T02:02:48.059Z,967.6
2016-06-08T02:02:58.059Z,967.5
2016-06-08T02:03:08.043Z,967.4
2016-06-08T02:03:18.121Z,967.5
2016-06-08T02:03:28.076Z,967.5
2016-06-08T02:03:38.076Z,967.5
2016-06-08T02:03:48.889Z,967.5
2016-06-08T02:03:57.889Z,967.5
2016-06-08T02:04:08.030Z,967.6
2016-06-08T02:04:18.092Z,967.5
2016-06-08T02:04:27.923Z,967.6
2016-06-08T02:04:42.314Z,967.5
2016-06-08T02:04:48.439Z,967.6
2016-06-08T02:04:58.517Z,967.6
2016-06-08T02:05:09.236Z,967.5
2016-06-08T02:05:18.501Z,967.6
2016-06-08T02:05:28.613Z,967.5
2016-06-08T02:05:38.519Z,967.6
2016-06-08T02:05:48.503Z,967.5
2016-06-08T02:05:58.488Z,967.5
2016-06-08T02:06:08.488Z,967.6
2016-06-08T02:06:18.503Z,967.6
2016-06-08T02:06:28.491Z,967.5
2016-06-08T02:06:38.506Z,967.5
2016-06-08T02:06:48.506Z,967.5
2016-06-08T02:06:58.491Z,967.5
2016-06-08T02:07:08.334Z,967.6
2016-06-08T02:07:18.475Z,967.6
2016-06-08T02:07:28.478Z,967.7
2016-06-08T02:07:38.478Z,967.6
2016-06-08T02:07:48.478Z,967.6
2016-06-08T02:07:58.478Z,967.6
2016-06-08T02:08:08.462Z,967.6
2016-06-08T02:08:18.462Z,967.5
2016-06-08T02:08:28.481Z,967.6
2016-06-08T02:08:38.465Z,967.6
2016-06-08T02:08:48.450Z,967.6
2016-06-08T02:08:58.465Z,967.6
2016-06-08T02:09:08.450Z,967.6
2016-06-08T02:09:18.450Z,967.6
2016-06-08T02:09:28.296Z,967.6
2016-06-08T02:09:38.452Z,967.6
2016-06-08T02:09:48.436Z,967.6
2016-06-08T02:09:58.483Z,967.7
2016-06-08T02:10:08.671Z,967.7